Terminal Aerodrome Forecast
Issued by NWS Greer, SC

Home | Current Version | Previous Version | Text Only | Print | Product List | Glossary On
Versions: 1 2 3 4 5 6 7 8 9 10 11 12 13
000
FTUS42 KGSP 271120
TAFGSP
TAF
KGSP 271120Z 2712/2812 00000KT P6SM FEW250
     FM271500 05004KT P6SM FEW045
     FM271800 10007KT P6SM VCSH SCT035
     FM272100 11006KT P6SM SCT060 PROB30 2721/2802 4SM -TSRA
      BKN060CB BKN130 BKN200
     FM280200 05004KT P6SM SCT120=

USA.gov is the U.S. government's official web portal to all federal, state and local government web resources and services.